Augusta, Kansas
Current Conditions -  °F | °C
As of 7:55 PM on Friday 24 Oct 2014 (Local Time) from KEQA Reporting Station
Clear Clear  
Wind Chill: 68°   Ceiling: Unl
Heat Index: 68°   Visibility: 10mi
Dew Point: 63°   Wind: 8mph
Humidity: 83%   Direction: 200°SSW
Pressure: 30.01"   Gusts: NA
Location:  37.68°N, 96.98°W
Report Text: KEQA 250055Z AUTO 20007KT 10SM CLR 20/17 A3001 RMK AO2
Loading
Personal Weather Stations






























Interactive Weather Map New forecast layout! Learn more

10-Day Weather Forecast

Advertisements
Track Severe Weather on mobile